sensor_id;sensor_type;location;lat;lon;timestamp;pressure;altitude;pressure_sealevel;temperature;humidity
46598;BME280;32318;48.858;8.252;2022-08-11T00:05:19;100576.81;;;21.98;35.90
46598;BME280;32318;48.858;8.252;2022-08-11T00:13:21;100576.81;;;21.98;35.75
46598;BME280;32318;48.858;8.252;2022-08-11T00:21:24;100582.72;;;21.95;36.18
46598;BME280;32318;48.858;8.252;2022-08-11T00:29:25;100585.66;;;21.93;36.17
46598;BME280;32318;48.858;8.252;2022-08-11T00:37:26;100574.88;;;21.87;36.31
46598;BME280;32318;48.858;8.252;2022-08-11T00:45:40;100576.75;;;21.74;37.91
46598;BME280;32318;48.858;8.252;2022-08-11T01:02:05;100575.53;;;21.52;36.89
46598;BME280;32318;48.858;8.252;2022-08-11T01:44:29;100575.22;;;20.10;40.23
46598;BME280;32318;48.858;8.252;2022-08-11T02:09:20;100577.84;;;20.48;39.87
46598;BME280;32318;48.858;8.252;2022-08-11T02:26:02;100570.59;;;20.42;39.76
46598;BME280;32318;48.858;8.252;2022-08-11T02:42:40;100566.28;;;20.34;40.42
46598;BME280;32318;48.858;8.252;2022-08-11T02:59:26;100569.94;;;19.89;41.96
46598;BME280;32318;48.858;8.252;2022-08-11T03:42:05;100577.66;;;19.34;41.27
46598;BME280;32318;48.858;8.252;2022-08-11T04:24:36;100582.53;;;18.91;44.03
46598;BME280;32318;48.858;8.252;2022-08-11T04:57:53;100589.84;;;19.04;44.30
46598;BME280;32318;48.858;8.252;2022-08-11T05:14:49;100601.28;;;18.79;44.06
46598;BME280;32318;48.858;8.252;2022-08-11T05:23:18;100605.03;;;18.85;44.23
46598;BME280;32318;48.858;8.252;2022-08-11T05:31:45;100603.59;;;18.96;44.93
46598;BME280;32318;48.858;8.252;2022-08-11T05:40:19;100598.56;;;19.13;45.08
46598;BME280;32318;48.858;8.252;2022-08-11T05:48:40;100602.41;;;19.44;45.04
46598;BME280;32318;48.858;8.252;2022-08-11T05:57:00;100599.75;;;19.89;44.10
46598;BME280;32318;48.858;8.252;2022-08-11T06:05:39;100606.47;;;20.44;43.50
46598;BME280;32318;48.858;8.252;2022-08-11T06:14:01;100607.59;;;21.06;42.00
46598;BME280;32318;48.858;8.252;2022-08-11T06:22:12;100604.44;;;21.46;41.24
46598;BME280;32318;48.858;8.252;2022-08-11T06:30:32;100613.63;;;22.13;40.17
46598;BME280;32318;48.858;8.252;2022-08-11T06:47:20;100603.44;;;23.10;38.12
46598;BME280;32318;48.858;8.252;2022-08-11T06:55:23;100607.31;;;23.49;37.17
46598;BME280;32318;48.858;8.252;2022-08-11T07:03:47;100603.22;;;23.93;36.28
46598;BME280;32318;48.858;8.252;2022-08-11T07:12:23;100608.03;;;24.15;35.47
46598;BME280;32318;48.858;8.252;2022-08-11T07:20:47;100608.97;;;24.08;36.13
46598;BME280;32318;48.858;8.252;2022-08-11T07:38:01;100601.25;;;24.34;35.87
46598;BME280;32318;48.858;8.252;2022-08-11T07:46:04;100597.03;;;24.61;35.74
46598;BME280;32318;48.858;8.252;2022-08-11T07:54:24;100588.75;;;25.12;34.54
46598;BME280;32318;48.858;8.252;2022-08-11T08:02:29;100585.47;;;25.54;33.94
46598;BME280;32318;48.858;8.252;2022-08-11T08:10:49;100590.25;;;25.91;32.72
46598;BME280;32318;48.858;8.252;2022-08-11T08:19:14;100583.75;;;26.25;31.89
46598;BME280;32318;48.858;8.252;2022-08-11T08:27:15;100585.03;;;26.44;32.07
46598;BME280;32318;48.858;8.252;2022-08-11T08:35:16;100583.78;;;26.68;31.68
46598;BME280;32318;48.858;8.252;2022-08-11T08:43:17;100591.88;;;26.85;30.74
46598;BME280;32318;48.858;8.252;2022-08-11T08:51:18;100584.38;;;27.23;29.69
46598;BME280;32318;48.858;8.252;2022-08-11T08:59:40;100583.63;;;27.33;29.30
46598;BME280;32318;48.858;8.252;2022-08-11T09:07:41;100580.69;;;27.50;28.74
46598;BME280;32318;48.858;8.252;2022-08-11T09:15:44;100580.19;;;27.68;28.53
46598;BME280;32318;48.858;8.252;2022-08-11T09:23:45;100580.19;;;27.63;28.65
46598;BME280;32318;48.858;8.252;2022-08-11T09:32:04;100568.72;;;27.82;28.66
46598;BME280;32318;48.858;8.252;2022-08-11T09:40:06;100567.06;;;27.86;28.21
46598;BME280;32318;48.858;8.252;2022-08-11T09:48:29;100578.09;;;28.12;27.80
46598;BME280;32318;48.858;8.252;2022-08-11T09:56:31;100565.47;;;28.31;26.13
46598;BME280;32318;48.858;8.252;2022-08-11T10:04:51;100573.13;;;28.60;24.50
46598;BME280;32318;48.858;8.252;2022-08-11T10:12:58;100580.28;;;28.46;25.24
46598;BME280;32318;48.858;8.252;2022-08-11T10:21:15;100569.59;;;28.39;24.44
46598;BME280;32318;48.858;8.252;2022-08-11T10:29:17;100575.31;;;28.53;24.59
46598;BME280;32318;48.858;8.252;2022-08-11T10:37:37;100557.19;;;28.73;24.77
46598;BME280;32318;48.858;8.252;2022-08-11T10:45:40;100561.31;;;28.70;25.67
46598;BME280;32318;48.858;8.252;2022-08-11T10:54:02;100544.81;;;28.80;25.39
46598;BME280;32318;48.858;8.252;2022-08-11T11:02:23;100530.50;;;28.89;24.95
46598;BME280;32318;48.858;8.252;2022-08-11T11:10:26;100528.44;;;29.15;25.25
46598;BME280;32318;48.858;8.252;2022-08-11T11:18:30;100513.53;;;29.37;23.12
46598;BME280;32318;48.858;8.252;2022-08-11T11:26:42;100506.44;;;29.15;23.53
46598;BME280;32318;48.858;8.252;2022-08-11T11:43:19;100484.94;;;29.38;23.56
46598;BME280;32318;48.858;8.252;2022-08-11T11:51:24;100480.91;;;29.60;24.05
46598;BME280;32318;48.858;8.252;2022-08-11T11:59:26;100464.09;;;29.61;23.45
46598;BME280;32318;48.858;8.252;2022-08-11T12:07:46;100460.69;;;30.09;22.84
46598;BME280;32318;48.858;8.252;2022-08-11T12:16:08;100451.16;;;30.01;22.39
46598;BME280;32318;48.858;8.252;2022-08-11T12:24:09;100456.41;;;29.98;22.99
46598;BME280;32318;48.858;8.252;2022-08-11T12:32:30;100435.66;;;30.35;22.20
46598;BME280;32318;48.858;8.252;2022-08-11T12:40:31;100439.00;;;30.32;22.03
46598;BME280;32318;48.858;8.252;2022-08-11T12:48:55;100431.59;;;30.57;21.28
46598;BME280;32318;48.858;8.252;2022-08-11T13:05:37;100417.56;;;30.77;21.21
46598;BME280;32318;48.858;8.252;2022-08-11T13:13:38;100410.25;;;30.87;21.23
46598;BME280;32318;48.858;8.252;2022-08-11T13:21:41;100399.44;;;30.71;20.71
46598;BME280;32318;48.858;8.252;2022-08-11T13:29:42;100393.88;;;30.95;21.12
46598;BME280;32318;48.858;8.252;2022-08-11T13:37:46;100381.41;;;31.17;20.55
46598;BME280;32318;48.858;8.252;2022-08-11T13:45:48;100353.56;;;31.19;20.56
46598;BME280;32318;48.858;8.252;2022-08-11T13:53:51;100371.75;;;31.20;20.61
46598;BME280;32318;48.858;8.252;2022-08-11T14:01:54;100355.19;;;31.20;20.01
46598;BME280;32318;48.858;8.252;2022-08-11T14:09:57;100346.31;;;31.23;20.40
46598;BME280;32318;48.858;8.252;2022-08-11T14:18:07;100339.50;;;31.34;19.98
46598;BME280;32318;48.858;8.252;2022-08-11T14:26:09;100324.91;;;31.34;20.02
46598;BME280;32318;48.858;8.252;2022-08-11T14:34:29;100316.25;;;31.54;19.55
46598;BME280;32318;48.858;8.252;2022-08-11T14:42:31;100307.13;;;31.40;19.81
46598;BME280;32318;48.858;8.252;2022-08-11T14:50:54;100317.72;;;31.66;19.04
46598;BME280;32318;48.858;8.252;2022-08-11T14:58:55;100305.44;;;31.58;18.88
46598;BME280;32318;48.858;8.252;2022-08-11T15:06:56;100295.41;;;31.48;19.26
46598;BME280;32318;48.858;8.252;2022-08-11T15:14:57;100292.47;;;31.58;19.38
46598;BME280;32318;48.858;8.252;2022-08-11T15:23:17;100287.84;;;31.54;18.89
46598;BME280;32318;48.858;8.252;2022-08-11T15:31:36;100274.75;;;31.32;19.65
46598;BME280;32318;48.858;8.252;2022-08-11T15:48:29;100263.91;;;31.35;18.65
46598;BME280;32318;48.858;8.252;2022-08-11T15:56:36;100264.00;;;31.30;18.89
46598;BME280;32318;48.858;8.252;2022-08-11T16:04:39;100243.38;;;31.08;19.04
46598;BME280;32318;48.858;8.252;2022-08-11T16:12:43;100244.47;;;31.12;19.37
46598;BME280;32318;48.858;8.252;2022-08-11T16:21:20;100239.38;;;31.20;18.38
46598;BME280;32318;48.858;8.252;2022-08-11T16:29:25;100236.69;;;31.14;18.76
46598;BME280;32318;48.858;8.252;2022-08-11T16:37:33;100243.97;;;31.05;18.74
46598;BME280;32318;48.858;8.252;2022-08-11T16:46:00;100236.19;;;30.93;18.88
46598;BME280;32318;48.858;8.252;2022-08-11T16:54:21;100229.25;;;30.96;19.00
46598;BME280;32318;48.858;8.252;2022-08-11T17:02:23;100222.88;;;30.81;19.17
46598;BME280;32318;48.858;8.252;2022-08-11T17:10:52;100222.47;;;30.74;18.87
46598;BME280;32318;48.858;8.252;2022-08-11T17:19:36;100213.69;;;30.53;18.99
46598;BME280;32318;48.858;8.252;2022-08-11T17:45:10;100209.56;;;29.93;20.10
46598;BME280;32318;48.858;8.252;2022-08-11T17:53:36;100209.19;;;29.76;20.19
46598;BME280;32318;48.858;8.252;2022-08-11T18:01:58;100221.84;;;29.52;19.95
46598;BME280;32318;48.858;8.252;2022-08-11T18:10:19;100227.44;;;29.42;20.45
46598;BME280;32318;48.858;8.252;2022-08-11T18:18:38;100235.44;;;29.09;20.80
46598;BME280;32318;48.858;8.252;2022-08-11T18:27:03;100231.84;;;28.79;21.56
46598;BME280;32318;48.858;8.252;2022-08-11T18:35:23;100239.97;;;28.55;21.95
46598;BME280;32318;48.858;8.252;2022-08-11T18:43:45;100253.06;;;28.23;22.56
46598;BME280;32318;48.858;8.252;2022-08-11T18:52:05;100253.69;;;27.94;23.22
46598;BME280;32318;48.858;8.252;2022-08-11T19:00:25;100262.56;;;27.60;23.99
46598;BME280;32318;48.858;8.252;2022-08-11T19:08:48;100267.00;;;27.25;24.48
46598;BME280;32318;48.858;8.252;2022-08-11T19:17:10;100273.03;;;26.96;24.87
46598;BME280;32318;48.858;8.252;2022-08-11T19:25:30;100273.78;;;26.71;25.77
46598;BME280;32318;48.858;8.252;2022-08-11T19:33:50;100278.41;;;26.44;26.35
46598;BME280;32318;48.858;8.252;2022-08-11T19:42:10;100281.53;;;26.10;26.98
46598;BME280;32318;48.858;8.252;2022-08-11T19:50:31;100284.72;;;25.92;27.50
46598;BME280;32318;48.858;8.252;2022-08-11T19:58:51;100290.66;;;25.78;27.26
46598;BME280;32318;48.858;8.252;2022-08-11T20:07:11;100288.13;;;25.61;27.79
46598;BME280;32318;48.858;8.252;2022-08-11T20:15:31;100285.22;;;25.41;27.81
46598;BME280;32318;48.858;8.252;2022-08-11T20:23:50;100288.13;;;25.29;28.16
46598;BME280;32318;48.858;8.252;2022-08-11T20:32:10;100290.75;;;25.13;28.57
46598;BME280;32318;48.858;8.252;2022-08-11T20:40:29;100303.16;;;24.99;28.46
46598;BME280;32318;48.858;8.252;2022-08-11T20:48:49;100295.41;;;24.85;28.95
46598;BME280;32318;48.858;8.252;2022-08-11T20:57:15;100309.44;;;24.72;29.51
46598;BME280;32318;48.858;8.252;2022-08-11T21:05:37;100305.50;;;24.63;29.30
46598;BME280;32318;48.858;8.252;2022-08-11T21:13:59;100316.19;;;24.64;29.66
46598;BME280;32318;48.858;8.252;2022-08-11T21:22:25;100313.63;;;24.57;29.92
46598;BME280;32318;48.858;8.252;2022-08-11T21:30:45;100313.91;;;24.34;30.37
46598;BME280;32318;48.858;8.252;2022-08-11T21:39:06;100321.38;;;24.21;30.62
46598;BME280;32318;48.858;8.252;2022-08-11T21:47:29;100312.88;;;24.18;31.34
46598;BME280;32318;48.858;8.252;2022-08-11T21:55:50;100311.00;;;23.96;31.30
46598;BME280;32318;48.858;8.252;2022-08-11T22:04:09;100317.28;;;23.79;31.51
46598;BME280;32318;48.858;8.252;2022-08-11T22:12:29;100316.03;;;23.53;31.62
46598;BME280;32318;48.858;8.252;2022-08-11T22:20:48;100313.22;;;23.14;32.57
46598;BME280;32318;48.858;8.252;2022-08-11T22:29:11;100305.03;;;23.14;33.34
46598;BME280;32318;48.858;8.252;2022-08-11T22:37:31;100307.25;;;23.00;32.97
46598;BME280;32318;48.858;8.252;2022-08-11T22:45:51;100297.56;;;22.75;32.75
46598;BME280;32318;48.858;8.252;2022-08-11T22:54:12;100294.38;;;22.66;33.55
46598;BME280;32318;48.858;8.252;2022-08-11T23:02:32;100287.50;;;22.76;33.17
46598;BME280;32318;48.858;8.252;2022-08-11T23:10:51;100283.44;;;22.78;32.97
46598;BME280;32318;48.858;8.252;2022-08-11T23:19:10;100282.84;;;22.59;33.53
46598;BME280;32318;48.858;8.252;2022-08-11T23:27:30;100283.47;;;22.49;33.64
46598;BME280;32318;48.858;8.252;2022-08-11T23:35:51;100288.06;;;22.49;33.63
46598;BME280;32318;48.858;8.252;2022-08-11T23:44:09;100293.66;;;22.30;33.62
46598;BME280;32318;48.858;8.252;2022-08-11T23:52:29;100288.78;;;21.80;34.43
